Pasadena 2N

39° 08' 31"N, 76° 30' 27"W, Elevation 43 ft.
Eastern Time

Hourly observations for the last 72 hours

Date Time Temperature (°F) Humi-
dity

(%)
Wind
(mph)
Pressure Rain (in) Sun
(W/m2)
ET
(in)
Air Dew 6 Hour 1 Hr 3 Hr 6 Hr Day
Alt
(in)
Sea
Level

(mb)
Max Min
30 03:00 70.4 64.6 82 SW 0 G 1 29.89 1012.1 0.00 0 0.002
30 02:00 72.5 64.9 78.7 72.4 77 SW 0 G 4 29.88 1011.9 0.00 0 0.001
30 01:00 74.6 66.2 75 W 6 G 12 29.88 1011.8 0.00 0 0.000
30 00:00 75.3 71.8 89 SSE 1 G 9 29.88 1012.0 0.00 0 0.129
29 23:00 75.3 71.5 88 S 1 G 6 29.88 1011.8 0.00 0 0.128
29 22:00 76.3 71.8 86 S 2 G 9 29.86 1011.3 0.00 0 0.127
29 21:00 77.3 72.1 84 W 1 G 7 29.87 1011.5 0.00 0 0.126
29 20:00 78.7 73.5 83.5 77.9 84 S 2 G 11 29.87 1011.5 0.00 12 0.125
29 19:00 78.2 74.0 87 SSE 1 G 8 29.88 1011.8 0.00 65 0.122
29 18:00 78.8 74.3 86 SE 5 G 12 29.86 1011.2 0.00 120 0.117
29 17:00 80.1 74.5 83 S 4 G 18 29.88 1011.8 0.00 237 0.108
29 16:00 81.7 75.3 81 SSE 4 G 13 29.89 1012.2 0.00 272 0.097
29 15:00 83.2 76.0 79 S 9 G 18 29.90 1012.6 0.00 591 0.081
29 14:00 82.9 76.5 84.8 74.2 81 SE 4 G 10 29.92 1013.4 0.00 610 0.061
29 13:00 84.2 77.4 80 SSE 4 G 13 29.95 1014.4 0.00 928 0.040
29 12:00 82.7 76.6 82 ESE 1 G 12 29.97 1014.9 0.00 849 0.023
29 11:00 80.5 75.6 85 S 2 G 9 29.97 1015.0 0.00 847 0.013
29 10:00 78.3 74.8 89 SSE 4 G 12 29.99 1015.6 0.00 244 0.008
29 09:00 75.6 73.1 92 SSE 2 G 9 30.01 1016.2 0.00 144 0.003
29 08:00 74.2 72.0 74.3 70.6 93 SSE 1 G 9 30.01 1016.2 0.00 100 0.001
29 07:00 72.4 71.2 96 SE 2 G 7 30.01 1016.2 0.00 62 0.000
29 06:00 71.0 69.8 96 S 1 G 5 30.00 1016.1 0.00 11 0.000
29 05:00 70.6 69.1 95 SSE 0 G 3 30.00 1016.1 0.00 0 0.000
29 04:00 71.4 69.9 95 SE 1 G 7 30.01 1016.2 0.00 0 0.000
29 03:00 71.5 70.0 95 SSE 1 G 4 30.01 1016.3 0.00 0 0.000
29 02:00 71.5 70.0 72.9 71.4 95 S 1 G 7 30.01 1016.4 0.00 0 0.000
29 01:00 71.9 70.4 95 SSE 2 G 9 30.01 1016.5 0.00 0 0.000
29 00:00 72.0 70.5 95 SSE 2 G 8 30.02 1016.6 0.11 0 0.049
28 23:00 71.8 70.3 95 SSE 2 G 11 30.01 1016.5 0.11 0 0.049
28 22:00 71.9 70.4 95 SSE 2 G 9 30.01 1016.2 0.11 0 0.049
28 21:00 71.6 69.8 94 SSE 1 G 6 29.99 1015.6 0.11 0 0.049
28 20:00 72.9 70.8 76.2 72.9 93 SSE 2 G 9 29.99 1015.7 0.11 16 0.048
28 19:00 73.8 71.3 92 SSE 2 G 8 30.00 1015.8 0.11 77 0.046
28 18:00 75.4 72.6 91 SE 1 G 9 30.00 1015.8 0.11 123 0.042
28 17:00 75.2 72.4 91 ESE 2 G 8 30.00 1016.0 0.11 179 0.037
28 16:00 74.8 72.3 92 SE 3 G 12 30.01 1016.4 0.11 160 0.034
28 15:00 76.1 73.3 91 SSE 1 G 11 30.03 1016.9 0.11 176 0.028
28 14:00 75.4 72.6 77.1 71.0 91 SSE 3 G 14 30.04 1017.2 0.05 0.11 153 0.022
28 13:00 75.5 73.0 92 SSE 6 G 17 30.05 1017.6 0.11 374 0.014
28 12:00 73.6 71.5 93 SSE 6 G 18 30.05 1017.8 0.11 248 0.008
28 11:00 72.5 71.0 95 SSE 3 G 14 30.06 1018.0 0.01 0.05 0.11 193 0.004
28 10:00 72.1 70.6 95 SSE 6 G 16 30.06 1018.1 0.03 0.10 179 0.002
28 09:00 71.7 70.2 95 SE 2 G 9 30.08 1018.7 0.01 0.07 46 0.001
28 08:00 71.1 69.6 71.2 70.1 95 S 2 G 11 30.08 1018.7 0.02 0.03 0.04 0.06 21 0.000
28 07:00 70.9 69.4 95 E 0 G 7 30.08 1018.7 0.04 19 0.000
28 06:00 70.6 69.1 95 E 2 G 11 30.08 1018.8 0.01 0.04 9 0.000
28 05:00 70.4 68.9 95 ESE 2 G 6 30.09 1018.9 0.01 0.01 0.03 0 0.000
28 04:00 70.3 68.5 94 ESE 1 G 3 30.09 1019.1 0.02 0 0.000
28 03:00 70.4 68.6 94 E 1 G 4 30.11 1019.7 0.02 0 0.000
28 02:00 70.2 68.4 74.6 68.4 94 E 0 G 2 30.13 1020.2 0.02 0.02 0.02 0.02 0 0.000
28 01:00 70.6 68.2 92 E 0 G 3 30.13 1020.5 0.00 0 0.000
28 00:00 69.3 67.2 93 SE 0 G 1 30.14 1020.8 0.00 0 0.134
27 23:00 68.5 65.8 91 SSE 0 G 2 30.14 1020.6 0.00 0 0.134
27 22:00 68.7 65.7 90 E 0 G 1 30.14 1020.6 0.00 0 0.134
27 21:00 70.7 66.3 86 Calm 30.12 1020.1 0.00 0 0.134
27 20:00 74.6 68.0 81.3 74.6 80 ENE 0 G 3 30.12 1019.9 0.00 12 0.133
27 19:00 77.4 68.5 74 SSE 2 G 7 30.11 1019.7 0.00 39 0.127
27 18:00 80.4 70.1 71 E 2 G 9 30.12 1019.9 0.00 413 0.116
27 17:00 80.6 71.2 73 E 2 G 8 30.12 1020.1 0.00 573 0.103
27 16:00 81.1 71.2 72 S 2 G 9 30.13 1020.4 0.00 889 0.089
27 15:00 77.8 68.9 74 SSE 2 G 7 30.16 1021.3 0.00 193 0.079
27 14:00 79.9 70.5 79.9 64.6 73 SE 5 G 12 30.17 1021.5 0.00 1046 0.065
27 13:00 77.2 69.1 76 ENE 3 G 8 30.17 1021.7 0.00 431 0.045
27 12:00 74.9 68.3 80 ENE 1 G 8 30.19 1022.3 0.00 893 0.026
27 11:00 72.9 67.1 82 E 3 G 9 30.19 1022.6 0.00 738 0.011
27 10:00 68.4 65.4 90 NE 2 G 3 30.20 1022.7 0.00 137 0.006
27 09:00 66.2 64.4 94 SE 1 G 4 30.20 1022.9 0.00 179 0.003
27 08:00 64.6 63.4 64.8 60.8 96 ESE 0 G 2 30.20 1022.7 0.00 132 0.001
27 07:00 64.7 63.5 96 E 0 G 2 30.19 1022.4 0.00 56 0.000
27 06:00 64.6 63.4 96 SE 0 G 1 30.18 1022.0 0.00 5 0.000
27 05:00 62.1 60.7 95 SSE 0 G 1 30.17 1021.8 0.00 0 0.000
27 04:00 61.0 59.6 95 Calm 30.17 1021.7 0.00 0 0.000

Data generated by WxSolution Version 1.9.1.8, Build 2020.02.16.